aviador You're here:

LFBM Decoded Metar

MONT-DE-MARSAN in FRANCE
Report Time2017-12-11 09:00:00
UTC Time2017-12-11 09:17:29
Flight Rules vfr VFR
Wind220° at 06 kt
W.Decomp.*RWY 27: 3.9 kt HW 4.6 kt LCW
W.Rank220° ranks 23
Current wind is above 220° avg. (4.6)
Visibility9999 m
Phenomena:N/A
Clouds:N/A
Expected CloudBase > 1,200 ft AGL from Temp-Dew spread
CeilingNone
Temp09°C (ISA -6)
Dew Point06°C (82% RH)
AAT5.9°C
QNH0988 hPa
Density Alt522 ft
Elevation207 ft
Report Wrong Elevation
Raw Report
LFBM 110900Z AUTO 22006KT 190V260 CAVOK 09/06 Q0988 NOSIG=

Extra information for LFBM:More info

Metar Taf Metar & Taf Last 4 Metars F.Rules Stats Wind Profile Meteogram Temp Stats Airport Information Weather charts Add Link Nearby VenuesMetar ALERT Operation Metar Decoded Social comments